sensor_id;sensor_type;location;lat;lon;timestamp;pressure;altitude;pressure_sealevel;temperature
78859;BMP280;68210;52.032;4.634;2023-12-04T00:01:43;101001.59;;;1.86
78859;BMP280;68210;52.032;4.634;2023-12-04T00:03:45;101003.63;;;1.94
78859;BMP280;68210;52.032;4.634;2023-12-04T00:05:45;101006.59;;;1.75
78859;BMP280;68210;52.032;4.634;2023-12-04T00:07:45;101004.28;;;1.86
78859;BMP280;68210;52.032;4.634;2023-12-04T00:09:46;101003.91;;;1.93
78859;BMP280;68210;52.032;4.634;2023-12-04T00:11:46;101007.75;;;1.87
78859;BMP280;68210;52.032;4.634;2023-12-04T00:13:46;100991.00;;;2.00
78859;BMP280;68210;52.032;4.634;2023-12-04T00:15:47;100999.97;;;1.90
78859;BMP280;68210;52.032;4.634;2023-12-04T00:17:47;100990.28;;;1.94
78859;BMP280;68210;52.032;4.634;2023-12-04T00:19:49;100995.03;;;1.97
78859;BMP280;68210;52.032;4.634;2023-12-04T00:21:49;100987.53;;;1.99
78859;BMP280;68210;52.032;4.634;2023-12-04T00:23:49;100984.00;;;2.04
78859;BMP280;68210;52.032;4.634;2023-12-04T00:25:50;100982.03;;;1.91
78859;BMP280;68210;52.032;4.634;2023-12-04T00:27:50;100979.72;;;2.03
78859;BMP280;68210;52.032;4.634;2023-12-04T00:29:50;100985.56;;;1.86
78859;BMP280;68210;52.032;4.634;2023-12-04T00:31:51;100979.06;;;1.92
78859;BMP280;68210;52.032;4.634;2023-12-04T00:33:51;100972.56;;;1.98
78859;BMP280;68210;52.032;4.634;2023-12-04T00:35:51;100975.09;;;2.08
78859;BMP280;68210;52.032;4.634;2023-12-04T00:37:52;100975.88;;;2.09
78859;BMP280;68210;52.032;4.634;2023-12-04T00:39:52;100972.63;;;2.11
78859;BMP280;68210;52.032;4.634;2023-12-04T00:41:52;100967.13;;;2.03
78859;BMP280;68210;52.032;4.634;2023-12-04T00:43:53;100967.13;;;2.03
78859;BMP280;68210;52.032;4.634;2023-12-04T00:45:53;100954.28;;;2.05
78859;BMP280;68210;52.032;4.634;2023-12-04T00:47:53;100960.81;;;1.99
78859;BMP280;68210;52.032;4.634;2023-12-04T00:49:54;100958.06;;;2.04
78859;BMP280;68210;52.032;4.634;2023-12-04T00:51:54;100949.09;;;1.95
78859;BMP280;68210;52.032;4.634;2023-12-04T00:53:54;100954.28;;;2.05
78859;BMP280;68210;52.032;4.634;2023-12-04T00:55:55;100952.56;;;1.96
78859;BMP280;68210;52.032;4.634;2023-12-04T00:57:55;100958.19;;;1.94
78859;BMP280;68210;52.032;4.634;2023-12-04T00:59:55;100949.09;;;1.95
78859;BMP280;68210;52.032;4.634;2023-12-04T01:01:56;100944.03;;;2.12
78859;BMP280;68210;52.032;4.634;2023-12-04T01:03:58;100940.00;;;1.96
78859;BMP280;68210;52.032;4.634;2023-12-04T01:05:59;100934.56;;;2.01
78859;BMP280;68210;52.032;4.634;2023-12-04T01:07:59;100939.47;;;1.94
78859;BMP280;68210;52.032;4.634;2023-12-04T01:10:00;100933.88;;;1.96
78859;BMP280;68210;52.032;4.634;2023-12-04T01:12:00;100943.59;;;2.05
78859;BMP280;68210;52.032;4.634;2023-12-04T01:14:01;100942.44;;;2.11
78859;BMP280;68210;52.032;4.634;2023-12-04T01:16:01;100941.25;;;2.17
78859;BMP280;68210;52.032;4.634;2023-12-04T01:18:02;100932.25;;;2.13
78859;BMP280;68210;52.032;4.634;2023-12-04T01:20:02;100935.81;;;2.22
78859;BMP280;68210;52.032;4.634;2023-12-04T01:22:03;100929.56;;;2.13
78859;BMP280;68210;52.032;4.634;2023-12-04T01:24:04;100928.78;;;2.12
78859;BMP280;68210;52.032;4.634;2023-12-04T01:26:04;100922.41;;;2.09
78859;BMP280;68210;52.032;4.634;2023-12-04T01:28:05;100912.88;;;2.03
78859;BMP280;68210;52.032;4.634;2023-12-04T01:30:06;100914.44;;;1.90
78859;BMP280;68210;52.032;4.634;2023-12-04T01:32:09;100926.69;;;1.91
78859;BMP280;68210;52.032;4.634;2023-12-04T01:34:09;100902.44;;;1.88
78859;BMP280;68210;52.032;4.634;2023-12-04T01:36:09;100900.81;;;1.87
78859;BMP280;68210;52.032;4.634;2023-12-04T01:38:10;100911.88;;;1.99
78859;BMP280;68210;52.032;4.634;2023-12-04T01:40:11;100907.69;;;1.93
78859;BMP280;68210;52.032;4.634;2023-12-04T01:42:11;100888.91;;;1.98
78859;BMP280;68210;52.032;4.634;2023-12-04T01:44:11;100892.16;;;1.95
78859;BMP280;68210;52.032;4.634;2023-12-04T01:46:13;100894.69;;;2.05
78859;BMP280;68210;52.032;4.634;2023-12-04T01:48:16;100889.59;;;2.03
78859;BMP280;68210;52.032;4.634;2023-12-04T01:50:16;100888.09;;;1.97
78859;BMP280;68210;52.032;4.634;2023-12-04T01:52:17;100897.34;;;2.05
78859;BMP280;68210;52.032;4.634;2023-12-04T01:54:17;100881.59;;;2.03
78859;BMP280;68210;52.032;4.634;2023-12-04T01:56:19;100888.69;;;1.94
78859;BMP280;68210;52.032;4.634;2023-12-04T01:58:20;100888.03;;;2.02
78859;BMP280;68210;52.032;4.634;2023-12-04T02:00:21;100874.59;;;2.07
78859;BMP280;68210;52.032;4.634;2023-12-04T02:02:21;100877.94;;;1.99
78859;BMP280;68210;52.032;4.634;2023-12-04T02:04:22;100872.50;;;2.04
78859;BMP280;68210;52.032;4.634;2023-12-04T02:06:22;100876.97;;;2.09
78859;BMP280;68210;52.032;4.634;2023-12-04T02:08:23;100871.91;;;2.07
78859;BMP280;68210;52.032;4.634;2023-12-04T02:10:24;100858.13;;;2.00
78859;BMP280;68210;52.032;4.634;2023-12-04T02:12:28;100866.78;;;2.11
78859;BMP280;68210;52.032;4.634;2023-12-04T02:14:29;100864.59;;;2.12
78859;BMP280;68210;52.032;4.634;2023-12-04T02:16:31;100870.34;;;2.19
78859;BMP280;68210;52.032;4.634;2023-12-04T02:18:35;100866.78;;;2.11
78859;BMP280;68210;52.032;4.634;2023-12-04T02:20:36;100863.81;;;2.12
78859;BMP280;68210;52.032;4.634;2023-12-04T02:22:37;100856.38;;;2.09
78859;BMP280;68210;52.032;4.634;2023-12-04T02:24:37;100866.38;;;2.17
78859;BMP280;68210;52.032;4.634;2023-12-04T02:26:47;100863.97;;;2.02
78859;BMP280;68210;52.032;4.634;2023-12-04T02:28:58;100858.78;;;1.92
78859;BMP280;68210;52.032;4.634;2023-12-04T02:31:01;100849.69;;;1.93
78859;BMP280;68210;52.032;4.634;2023-12-04T02:33:05;100853.06;;;1.99
78859;BMP280;68210;52.032;4.634;2023-12-04T02:35:08;100848.44;;;2.04
78859;BMP280;68210;52.032;4.634;2023-12-04T02:37:10;100845.13;;;1.94
78859;BMP280;68210;52.032;4.634;2023-12-04T02:39:11;100835.44;;;1.98
78859;BMP280;68210;52.032;4.634;2023-12-04T02:41:11;100835.66;;;2.01
78859;BMP280;68210;52.032;4.634;2023-12-04T02:43:12;100835.22;;;1.94
78859;BMP280;68210;52.032;4.634;2023-12-04T02:45:12;100835.06;;;2.04
78859;BMP280;68210;52.032;4.634;2023-12-04T02:47:13;100824.84;;;2.06
78859;BMP280;68210;52.032;4.634;2023-12-04T02:49:13;100819.81;;;2.05
78859;BMP280;68210;52.032;4.634;2023-12-04T02:51:13;100827.53;;;2.06
78859;BMP280;68210;52.032;4.634;2023-12-04T02:53:14;100819.22;;;2.08
78859;BMP280;68210;52.032;4.634;2023-12-04T02:55:14;100822.56;;;2.00
78859;BMP280;68210;52.032;4.634;2023-12-04T02:57:14;100819.34;;;1.84
78859;BMP280;68210;52.032;4.634;2023-12-04T02:59:15;100817.03;;;1.96
78859;BMP280;68210;52.032;4.634;2023-12-04T03:01:15;100811.38;;;1.98
78859;BMP280;68210;52.032;4.634;2023-12-04T03:03:15;100803.75;;;1.91
78859;BMP280;68210;52.032;4.634;2023-12-04T03:05:15;100803.66;;;1.96
78859;BMP280;68210;52.032;4.634;2023-12-04T03:07:16;100796.94;;;1.99
78859;BMP280;68210;52.032;4.634;2023-12-04T03:09:20;100795.06;;;1.99
78859;BMP280;68210;52.032;4.634;2023-12-04T03:11:20;100801.38;;;2.03
78859;BMP280;68210;52.032;4.634;2023-12-04T03:13:20;100791.28;;;2.00
78859;BMP280;68210;52.032;4.634;2023-12-04T03:15:21;100780.69;;;1.95
78859;BMP280;68210;52.032;4.634;2023-12-04T03:17:21;100785.75;;;1.97
78859;BMP280;68210;52.032;4.634;2023-12-04T03:19:21;100776.94;;;1.96
78859;BMP280;68210;52.032;4.634;2023-12-04T03:21:22;100773.66;;;1.99
78859;BMP280;68210;52.032;4.634;2023-12-04T03:23:22;100775.16;;;2.05
78859;BMP280;68210;52.032;4.634;2023-12-04T03:25:22;100761.00;;;2.05
78859;BMP280;68210;52.032;4.634;2023-12-04T03:27:23;100757.47;;;2.09
78859;BMP280;68210;52.032;4.634;2023-12-04T03:29:23;100754.28;;;2.07
78859;BMP280;68210;52.032;4.634;2023-12-04T03:31:24;100746.34;;;2.02
78859;BMP280;68210;52.032;4.634;2023-12-04T03:33:25;100744.53;;;1.98
78859;BMP280;68210;52.032;4.634;2023-12-04T03:35:26;100740.59;;;1.95
78859;BMP280;68210;52.032;4.634;2023-12-04T03:37:26;100743.16;;;2.00
78859;BMP280;68210;52.032;4.634;2023-12-04T03:39:27;100749.41;;;1.96
78859;BMP280;68210;52.032;4.634;2023-12-04T03:41:27;100739.59;;;1.91
78859;BMP280;68210;52.032;4.634;2023-12-04T03:43:27;100733.66;;;1.94
78859;BMP280;68210;52.032;4.634;2023-12-04T03:45:28;100733.56;;;1.99
78859;BMP280;68210;52.032;4.634;2023-12-04T03:47:28;100730.50;;;2.06
78859;BMP280;68210;52.032;4.634;2023-12-04T03:49:28;100724.38;;;2.05
78859;BMP280;68210;52.032;4.634;2023-12-04T03:51:29;100727.81;;;1.92
78859;BMP280;68210;52.032;4.634;2023-12-04T03:53:29;100720.81;;;1.96
78859;BMP280;68210;52.032;4.634;2023-12-04T03:55:29;100721.78;;;2.00
78859;BMP280;68210;52.032;4.634;2023-12-04T03:57:30;100730.91;;;1.99
78859;BMP280;68210;52.032;4.634;2023-12-04T03:59:30;100721.00;;;2.00
78859;BMP280;68210;52.032;4.634;2023-12-04T04:01:30;100717.22;;;2.01
78859;BMP280;68210;52.032;4.634;2023-12-04T04:03:32;100707.63;;;2.00
78859;BMP280;68210;52.032;4.634;2023-12-04T04:05:32;100718.13;;;1.96
78859;BMP280;68210;52.032;4.634;2023-12-04T04:07:34;100711.56;;;1.89
78859;BMP280;68210;52.032;4.634;2023-12-04T04:09:34;100701.59;;;1.94
78859;BMP280;68210;52.032;4.634;2023-12-04T04:11:35;100702.97;;;1.92
78859;BMP280;68210;52.032;4.634;2023-12-04T04:13:35;100698.03;;;1.85
78859;BMP280;68210;52.032;4.634;2023-12-04T04:15:35;100696.84;;;1.91
78859;BMP280;68210;52.032;4.634;2023-12-04T04:17:36;100698.81;;;1.99
78859;BMP280;68210;52.032;4.634;2023-12-04T04:19:36;100692.28;;;1.92
78859;BMP280;68210;52.032;4.634;2023-12-04T04:21:40;100698.91;;;1.94
78859;BMP280;68210;52.032;4.634;2023-12-04T04:23:40;100705.34;;;1.93
78859;BMP280;68210;52.032;4.634;2023-12-04T04:25:41;100692.00;;;1.93
78859;BMP280;68210;52.032;4.634;2023-12-04T04:27:41;100690.38;;;1.92
78859;BMP280;68210;52.032;4.634;2023-12-04T04:29:42;100682.78;;;1.99
78859;BMP280;68210;52.032;4.634;2023-12-04T04:31:42;100669.00;;;2.06
78859;BMP280;68210;52.032;4.634;2023-12-04T04:33:42;100682.28;;;1.97
78859;BMP280;68210;52.032;4.634;2023-12-04T04:35:43;100679.78;;;1.87
78859;BMP280;68210;52.032;4.634;2023-12-04T04:37:43;100666.75;;;1.99
78859;BMP280;68210;52.032;4.634;2023-12-04T04:39:44;100669.94;;;2.01
78859;BMP280;68210;52.032;4.634;2023-12-04T04:41:44;100672.88;;;2.00
78859;BMP280;68210;52.032;4.634;2023-12-04T04:43:45;100667.25;;;2.01
78859;BMP280;68210;52.032;4.634;2023-12-04T04:45:45;100670.81;;;1.97
78859;BMP280;68210;52.032;4.634;2023-12-04T04:47:45;100671.31;;;1.99
78859;BMP280;68210;52.032;4.634;2023-12-04T04:49:46;100669.94;;;2.01
78859;BMP280;68210;52.032;4.634;2023-12-04T04:51:46;100669.09;;;2.01
78859;BMP280;68210;52.032;4.634;2023-12-04T04:53:46;100666.34;;;1.92
78859;BMP280;68210;52.032;4.634;2023-12-04T04:55:47;100655.56;;;1.97
78859;BMP280;68210;52.032;4.634;2023-12-04T04:57:47;100659.78;;;1.98
78859;BMP280;68210;52.032;4.634;2023-12-04T04:59:47;100645.75;;;1.93
78859;BMP280;68210;52.032;4.634;2023-12-04T05:01:48;100660.31;;;2.00
78859;BMP280;68210;52.032;4.634;2023-12-04T05:03:48;100641.91;;;1.99
78859;BMP280;68210;52.032;4.634;2023-12-04T05:05:48;100646.44;;;2.11
78859;BMP280;68210;52.032;4.634;2023-12-04T05:07:49;100641.59;;;2.00
78859;BMP280;68210;52.032;4.634;2023-12-04T05:09:52;100646.34;;;2.03
78859;BMP280;68210;52.032;4.634;2023-12-04T05:11:52;100639.91;;;2.04
78859;BMP280;68210;52.032;4.634;2023-12-04T05:13:52;100638.81;;;2.05
78859;BMP280;68210;52.032;4.634;2023-12-04T05:15:53;100626.25;;;2.06
78859;BMP280;68210;52.032;4.634;2023-12-04T05:17:53;100646.25;;;2.08
78859;BMP280;68210;52.032;4.634;2023-12-04T05:19:53;100636.16;;;2.05
78859;BMP280;68210;52.032;4.634;2023-12-04T05:21:54;100628.31;;;2.09
78859;BMP280;68210;52.032;4.634;2023-12-04T05:23:54;100631.31;;;2.07
78859;BMP280;68210;52.032;4.634;2023-12-04T05:25:54;100631.81;;;2.09
78859;BMP280;68210;52.032;4.634;2023-12-04T05:27:55;100611.88;;;2.15
78859;BMP280;68210;52.032;4.634;2023-12-04T05:29:55;100626.03;;;2.15
78859;BMP280;68210;52.032;4.634;2023-12-04T05:31:55;100617.63;;;2.09
78859;BMP280;68210;52.032;4.634;2023-12-04T05:33:57;100613.19;;;2.04
78859;BMP280;68210;52.032;4.634;2023-12-04T05:35:57;100602.41;;;2.09
78859;BMP280;68210;52.032;4.634;2023-12-04T05:37:58;100608.31;;;2.06
78859;BMP280;68210;52.032;4.634;2023-12-04T05:39:58;100613.88;;;2.10
78859;BMP280;68210;52.032;4.634;2023-12-04T05:41:58;100598.63;;;2.10
78859;BMP280;68210;52.032;4.634;2023-12-04T05:43:59;100607.75;;;2.09
78859;BMP280;68210;52.032;4.634;2023-12-04T05:45:59;100616.84;;;2.08
78859;BMP280;68210;52.032;4.634;2023-12-04T05:47:59;100584.66;;;2.13
78859;BMP280;68210;52.032;4.634;2023-12-04T05:50:00;100614.84;;;2.13
78859;BMP280;68210;52.032;4.634;2023-12-04T05:52:00;100603.25;;;2.18
78859;BMP280;68210;52.032;4.634;2023-12-04T05:54:00;100610.59;;;2.26
78859;BMP280;68210;52.032;4.634;2023-12-04T05:56:02;100608.28;;;2.19
78859;BMP280;68210;52.032;4.634;2023-12-04T05:58:02;100606.81;;;2.27
78859;BMP280;68210;52.032;4.634;2023-12-04T06:00:03;100603.75;;;2.20
78859;BMP280;68210;52.032;4.634;2023-12-04T06:02:04;100602.16;;;2.19
78859;BMP280;68210;52.032;4.634;2023-12-04T06:04:05;100604.75;;;2.24
78859;BMP280;68210;52.032;4.634;2023-12-04T06:06:05;100631.50;;;2.11
78859;BMP280;68210;52.032;4.634;2023-12-04T06:08:05;100598.81;;;2.13
78859;BMP280;68210;52.032;4.634;2023-12-04T06:10:06;100601.56;;;2.22
78859;BMP280;68210;52.032;4.634;2023-12-04T06:12:07;100594.66;;;2.21
78859;BMP280;68210;52.032;4.634;2023-12-04T06:14:09;100592.56;;;2.18
78859;BMP280;68210;52.032;4.634;2023-12-04T06:16:09;100592.47;;;2.23
78859;BMP280;68210;52.032;4.634;2023-12-04T06:18:09;100586.00;;;2.24
78859;BMP280;68210;52.032;4.634;2023-12-04T06:20:10;100595.53;;;2.16
78859;BMP280;68210;52.032;4.634;2023-12-04T06:22:11;100598.53;;;2.15
78859;BMP280;68210;52.032;4.634;2023-12-04T06:24:12;100582.84;;;2.22
78859;BMP280;68210;52.032;4.634;2023-12-04T06:26:13;100589.19;;;2.26
78859;BMP280;68210;52.032;4.634;2023-12-04T06:28:13;100575.91;;;2.34
78859;BMP280;68210;52.032;4.634;2023-12-04T06:30:14;100570.38;;;2.31
78859;BMP280;68210;52.032;4.634;2023-12-04T06:32:16;100566.09;;;2.30
78859;BMP280;68210;52.032;4.634;2023-12-04T06:34:17;100577.97;;;2.37
78859;BMP280;68210;52.032;4.634;2023-12-04T06:36:17;100558.19;;;2.25
78859;BMP280;68210;52.032;4.634;2023-12-04T06:38:24;100562.69;;;2.38
78859;BMP280;68210;52.032;4.634;2023-12-04T06:40:24;100559.91;;;2.42
78859;BMP280;68210;52.032;4.634;2023-12-04T06:42:26;100561.25;;;2.32
78859;BMP280;68210;52.032;4.634;2023-12-04T06:44:26;100571.22;;;2.40
78859;BMP280;68210;52.032;4.634;2023-12-04T06:47:04;100567.69;;;2.31
78859;BMP280;68210;52.032;4.634;2023-12-04T06:49:06;100561.13;;;2.37
78859;BMP280;68210;52.032;4.634;2023-12-04T06:51:09;100549.34;;;2.38
78859;BMP280;68210;52.032;4.634;2023-12-04T06:56:03;100533.34;;;2.46
78859;BMP280;68210;52.032;4.634;2023-12-04T06:58:03;100541.47;;;2.41
78859;BMP280;68210;52.032;4.634;2023-12-04T07:00:05;100555.19;;;2.40
78859;BMP280;68210;52.032;4.634;2023-12-04T07:02:10;100561.50;;;2.43
78859;BMP280;68210;52.032;4.634;2023-12-04T07:04:11;100566.84;;;2.43
78859;BMP280;68210;52.032;4.634;2023-12-04T07:06:11;100550.78;;;2.43
78859;BMP280;68210;52.032;4.634;2023-12-04T07:08:12;100544.03;;;2.46
78859;BMP280;68210;52.032;4.634;2023-12-04T07:10:13;100539.19;;;2.48
78859;BMP280;68210;52.032;4.634;2023-12-04T07:12:14;100543.66;;;2.52
78859;BMP280;68210;52.032;4.634;2023-12-04T07:14:16;100524.91;;;2.52
78859;BMP280;68210;52.032;4.634;2023-12-04T07:16:17;100543.66;;;2.52
78859;BMP280;68210;52.032;4.634;2023-12-04T07:18:18;100535.72;;;2.47
78859;BMP280;68210;52.032;4.634;2023-12-04T07:20:18;100534.50;;;2.53
78859;BMP280;68210;52.032;4.634;2023-12-04T07:22:19;100523.94;;;2.48
78859;BMP280;68210;52.032;4.634;2023-12-04T07:24:19;100530.72;;;2.54
78859;BMP280;68210;52.032;4.634;2023-12-04T07:26:20;100520.66;;;2.51
78859;BMP280;68210;52.032;4.634;2023-12-04T07:28:20;100531.22;;;2.56
78859;BMP280;68210;52.032;4.634;2023-12-04T07:30:21;100513.72;;;2.50
78859;BMP280;68210;52.032;4.634;2023-12-04T07:32:21;100513.50;;;2.60
78859;BMP280;68210;52.032;4.634;2023-12-04T07:34:21;100517.13;;;2.64
78859;BMP280;68210;52.032;4.634;2023-12-04T07:36:22;100515.19;;;2.56
78859;BMP280;68210;52.032;4.634;2023-12-04T07:38:24;100516.28;;;2.55
78859;BMP280;68210;52.032;4.634;2023-12-04T07:40:24;100511.28;;;2.62
78859;BMP280;68210;52.032;4.634;2023-12-04T07:42:24;100505.47;;;2.60
78859;BMP280;68210;52.032;4.634;2023-12-04T07:44:25;100502.34;;;2.67
78859;BMP280;68210;52.032;4.634;2023-12-04T07:46:25;100515.59;;;2.72
78859;BMP280;68210;52.032;4.634;2023-12-04T07:48:25;100513.97;;;2.62
78859;BMP280;68210;52.032;4.634;2023-12-04T07:50:26;100515.56;;;2.63
78859;BMP280;68210;52.032;4.634;2023-12-04T07:52:26;100513.97;;;2.62
78859;BMP280;68210;52.032;4.634;2023-12-04T07:54:27;100499.63;;;2.58
78859;BMP280;68210;52.032;4.634;2023-12-04T07:56:27;100505.69;;;2.50
78859;BMP280;68210;52.032;4.634;2023-12-04T07:58:27;100499.97;;;2.65
78859;BMP280;68210;52.032;4.634;2023-12-04T08:00:28;100505.31;;;2.65
78859;BMP280;68210;52.032;4.634;2023-12-04T08:02:28;100501.69;;;2.61
78859;BMP280;68210;52.032;4.634;2023-12-04T08:04:30;100504.34;;;2.61
78859;BMP280;68210;52.032;4.634;2023-12-04T08:06:30;100495.38;;;2.57
78859;BMP280;68210;52.032;4.634;2023-12-04T08:08:31;100514.88;;;2.58
78859;BMP280;68210;52.032;4.634;2023-12-04T08:10:32;100533.63;;;2.58
78859;BMP280;68210;52.032;4.634;2023-12-04T08:12:32;100520.41;;;2.61
78859;BMP280;68210;52.032;4.634;2023-12-04T08:14:34;100518.84;;;2.60
78859;BMP280;68210;52.032;4.634;2023-12-04T08:16:34;100528.63;;;2.65
78859;BMP280;68210;52.032;4.634;2023-12-04T08:18:35;100524.38;;;2.64
78859;BMP280;68210;52.032;4.634;2023-12-04T08:20:35;100517.63;;;2.66
78859;BMP280;68210;52.032;4.634;2023-12-04T08:22:36;100512.31;;;2.53
78859;BMP280;68210;52.032;4.634;2023-12-04T08:24:37;100509.72;;;2.61
78859;BMP280;68210;52.032;4.634;2023-12-04T08:26:39;100510.16;;;2.55
78859;BMP280;68210;52.032;4.634;2023-12-04T08:28:39;100524.44;;;2.50
78859;BMP280;68210;52.032;4.634;2023-12-04T08:30:41;100507.53;;;2.63
78859;BMP280;68210;52.032;4.634;2023-12-04T08:32:42;100504.97;;;2.58
78859;BMP280;68210;52.032;4.634;2023-12-04T08:34:42;100490.53;;;2.68
78859;BMP280;68210;52.032;4.634;2023-12-04T08:36:42;100495.44;;;2.66
78859;BMP280;68210;52.032;4.634;2023-12-04T08:38:43;100501.25;;;2.68
78859;BMP280;68210;52.032;4.634;2023-12-04T08:40:43;100494.44;;;2.62
78859;BMP280;68210;52.032;4.634;2023-12-04T08:42:44;100491.47;;;2.63
78859;BMP280;68210;52.032;4.634;2023-12-04T08:44:45;100484.22;;;2.64
78859;BMP280;68210;52.032;4.634;2023-12-04T08:58:34;100464.50;;;2.60
78859;BMP280;68210;52.032;4.634;2023-12-04T09:00:35;100449.44;;;2.64
78859;BMP280;68210;52.032;4.634;2023-12-04T09:02:37;100446.00;;;2.63
78859;BMP280;68210;52.032;4.634;2023-12-04T09:04:38;100452.03;;;2.77
78859;BMP280;68210;52.032;4.634;2023-12-04T09:06:38;100445.72;;;2.73
78859;BMP280;68210;52.032;4.634;2023-12-04T09:08:38;100431.66;;;2.68
78859;BMP280;68210;52.032;4.634;2023-12-04T09:14:09;100453.56;;;2.70
78859;BMP280;68210;52.032;4.634;2023-12-04T09:22:03;100448.22;;;2.70
78859;BMP280;68210;52.032;4.634;2023-12-04T09:24:03;100459.53;;;2.67
78859;BMP280;68210;52.032;4.634;2023-12-04T09:26:04;100462.50;;;2.65
78859;BMP280;68210;52.032;4.634;2023-12-04T09:28:04;100466.78;;;2.66
78859;BMP280;68210;52.032;4.634;2023-12-04T09:30:05;100461.16;;;2.76
78859;BMP280;68210;52.032;4.634;2023-12-04T09:32:06;100464.59;;;2.68
78859;BMP280;68210;52.032;4.634;2023-12-04T09:34:06;100476.25;;;2.72
78859;BMP280;68210;52.032;4.634;2023-12-04T09:36:08;100461.91;;;2.68
78859;BMP280;68210;52.032;4.634;2023-12-04T09:38:09;100474.06;;;2.74
78859;BMP280;68210;52.032;4.634;2023-12-04T09:40:10;100457.03;;;2.70
78859;BMP280;68210;52.032;4.634;2023-12-04T09:42:13;100458.59;;;2.63
78859;BMP280;68210;52.032;4.634;2023-12-04T09:44:14;100452.16;;;2.72
78859;BMP280;68210;52.032;4.634;2023-12-04T09:46:16;100464.88;;;2.67
78859;BMP280;68210;52.032;4.634;2023-12-04T09:48:17;100451.69;;;2.70
78859;BMP280;68210;52.032;4.634;2023-12-04T09:50:18;100438.66;;;2.77
78859;BMP280;68210;52.032;4.634;2023-12-04T09:52:21;100442.28;;;2.81
78859;BMP280;68210;52.032;4.634;2023-12-04T09:54:24;100444.16;;;2.72
78859;BMP280;68210;52.032;4.634;2023-12-04T09:56:25;100446.81;;;2.72
78859;BMP280;68210;52.032;4.634;2023-12-04T09:58:27;100445.59;;;2.78
78859;BMP280;68210;52.032;4.634;2023-12-04T10:00:31;100429.72;;;2.81
78859;BMP280;68210;52.032;4.634;2023-12-04T10:02:32;100437.13;;;2.84
78859;BMP280;68210;52.032;4.634;2023-12-04T10:04:32;100427.34;;;2.80
78859;BMP280;68210;52.032;4.634;2023-12-04T10:06:36;100420.69;;;2.69
78859;BMP280;68210;52.032;4.634;2023-12-04T10:08:37;100426.22;;;2.81
78859;BMP280;68210;52.032;4.634;2023-12-04T10:10:37;100409.72;;;2.79
78859;BMP280;68210;52.032;4.634;2023-12-04T10:12:37;100408.81;;;2.92
78859;BMP280;68210;52.032;4.634;2023-12-04T10:14:38;100405.03;;;2.84
78859;BMP280;68210;52.032;4.634;2023-12-04T10:16:38;100400.31;;;2.90
78859;BMP280;68210;52.032;4.634;2023-12-04T10:18:39;100399.69;;;2.93
78859;BMP280;68210;52.032;4.634;2023-12-04T10:20:51;100389.00;;;3.01
78859;BMP280;68210;52.032;4.634;2023-12-04T10:23:00;100406.63;;;2.94
78859;BMP280;68210;52.032;4.634;2023-12-04T10:25:14;100394.59;;;2.83
78859;BMP280;68210;52.032;4.634;2023-12-04T10:27:14;100381.38;;;2.86
78859;BMP280;68210;52.032;4.634;2023-12-04T10:29:18;100383.00;;;2.96
78859;BMP280;68210;52.032;4.634;2023-12-04T10:31:18;100375.31;;;3.02
78859;BMP280;68210;52.032;4.634;2023-12-04T10:33:19;100368.88;;;3.03
78859;BMP280;68210;52.032;4.634;2023-12-04T10:35:19;100363.94;;;2.97
78859;BMP280;68210;52.032;4.634;2023-12-04T10:37:20;100376.13;;;3.03
78859;BMP280;68210;52.032;4.634;2023-12-04T10:39:20;100352.81;;;3.03
78859;BMP280;68210;52.032;4.634;2023-12-04T10:41:20;100358.63;;;3.05
78859;BMP280;68210;52.032;4.634;2023-12-04T10:43:22;100352.03;;;3.03
78859;BMP280;68210;52.032;4.634;2023-12-04T10:45:22;100351.84;;;3.08
78859;BMP280;68210;52.032;4.634;2023-12-04T10:47:23;100357.97;;;3.00
78859;BMP280;68210;52.032;4.634;2023-12-04T10:49:27;100356.16;;;3.17
78859;BMP280;68210;52.032;4.634;2023-12-04T10:51:30;100337.25;;;3.14
78859;BMP280;68210;52.032;4.634;2023-12-04T10:53:30;100330.78;;;3.23
78859;BMP280;68210;52.032;4.634;2023-12-04T10:55:31;100344.97;;;3.24
78859;BMP280;68210;52.032;4.634;2023-12-04T10:57:36;100336.47;;;3.22
78859;BMP280;68210;52.032;4.634;2023-12-04T10:59:38;100328.56;;;3.08
78859;BMP280;68210;52.032;4.634;2023-12-04T11:01:42;100337.06;;;3.10
78859;BMP280;68210;52.032;4.634;2023-12-04T11:03:48;100327.75;;;3.08
78859;BMP280;68210;52.032;4.634;2023-12-04T11:05:53;100323.53;;;3.15
78859;BMP280;68210;52.032;4.634;2023-12-04T11:07:57;100329.50;;;3.12
78859;BMP280;68210;52.032;4.634;2023-12-04T11:10:00;100310.75;;;3.12
78859;BMP280;68210;52.032;4.634;2023-12-04T11:12:04;100306.19;;;3.21
78859;BMP280;68210;52.032;4.634;2023-12-04T11:14:08;100299.13;;;3.17
78859;BMP280;68210;52.032;4.634;2023-12-04T11:16:31;100294.88;;;3.33
78859;BMP280;68210;52.032;4.634;2023-12-04T11:18:36;100304.16;;;3.27
78859;BMP280;68210;52.032;4.634;2023-12-04T11:20:47;100321.63;;;3.24
78859;BMP280;68210;52.032;4.634;2023-12-04T11:22:49;100316.91;;;3.21
78859;BMP280;68210;52.032;4.634;2023-12-04T11:24:54;100305.13;;;3.22
78859;BMP280;68210;52.032;4.634;2023-12-04T11:26:55;100299.91;;;3.34
78859;BMP280;68210;52.032;4.634;2023-12-04T11:28:56;100310.00;;;3.37
78859;BMP280;68210;52.032;4.634;2023-12-04T11:30:58;100312.22;;;3.35
78859;BMP280;68210;52.032;4.634;2023-12-04T11:33:00;100292.38;;;3.36
78859;BMP280;68210;52.032;4.634;2023-12-04T11:35:00;100320.06;;;3.23
78859;BMP280;68210;52.032;4.634;2023-12-04T11:37:03;100295.97;;;3.23
78859;BMP280;68210;52.032;4.634;2023-12-04T11:39:03;100306.97;;;3.13
78859;BMP280;68210;52.032;4.634;2023-12-04T11:41:17;100294.56;;;3.17
78859;BMP280;68210;52.032;4.634;2023-12-04T11:43:27;100301.31;;;3.23
78859;BMP280;68210;52.032;4.634;2023-12-04T11:45:32;100294.84;;;3.24
78859;BMP280;68210;52.032;4.634;2023-12-04T11:47:52;100287.63;;;3.33
78859;BMP280;68210;52.032;4.634;2023-12-04T11:49:54;100282.28;;;3.33
78859;BMP280;68210;52.032;4.634;2023-12-04T11:51:56;100280.38;;;3.33
78859;BMP280;68210;52.032;4.634;2023-12-04T11:53:58;100273.91;;;3.34
78859;BMP280;68210;52.032;4.634;2023-12-04T11:56:08;100283.53;;;3.27
78859;BMP280;68210;52.032;4.634;2023-12-04T11:58:10;100280.09;;;3.35
78859;BMP280;68210;52.032;4.634;2023-12-04T12:02:15;100285.75;;;3.42
78859;BMP280;68210;52.032;4.634;2023-12-04T12:04:15;100266.22;;;3.33
78859;BMP280;68210;52.032;4.634;2023-12-04T12:06:17;100264.00;;;3.35